Silver Wind — C6FG2 — position and weather

sailwx.info

Track history (hours):
 
Tides and Currents Weather Stations Pressure Air Temp Water Temp Dewpoint Dewpoint Depression Visibility Wind Speed Wind Dir Waves Ship Positions

Silver Wind

Operator: V Ships Leisure

Last reported at 2019-Oct-21 00:00 UTC. Time now 2019-Oct-23 00:19 UTC.
Position N 42°21' W 070°56'.

Length 156 m; draft 5.7 m.

Type: Passenger vessel. MMSI: 308814000.

Date/timePositionNaut miles runAvg speedWind from/ knotsBaromVisibWave heightAir tempDewpointWater temp
2019-Oct-21 00:00N 42°21' W 070°56'4 7.9
2019-Oct-20 23:30N 42°21' W 071°01'0 0.0
2019-Oct-20 17:04N 42°21' W 071°02'0 2.5
2019-Oct-20 17:00N 42°21' W 071°01'6 8.4
2019-Oct-20 16:20N 42°23' W 070°54'40 9.1
2019-Oct-20 11:54N 41°45' W 070°36'410.0
2019-Oct-20 11:30N 41°42' W 070°40'714.3
2019-Oct-20 11:01N 41°35' W 070°43'816.3
2019-Oct-20 10:30N 41°30' W 070°52'816.0
2019-Oct-20 09:59N 41°26' W 071°01'916.1
2019-Oct-20 09:25N 41°24' W 071°13'614.6
2019-Oct-20 09:00N 41°23' W 071°21'11814.0
2019-Oct-20 00:35N 40°25' W 073°37'1315.5
2019-Oct-19 23:46N 40°29' W 073°53'416.7
2019-Oct-19 23:30N 40°30' W 073°58'713.9
2019-Oct-19 23:00N 40°36' W 074°03'713.6
2019-Oct-19 22:30N 40°43' W 074°01'3 6.0
2019-Oct-19 22:00N 40°46' W 073°60'0 0.0
2019-Oct-19 09:41N 40°46' W 073°60'0 0.0
2019-Oct-19 09:23N 40°46' W 073°60'0 0.0
2019-Oct-19 08:59N 40°46' W 073°60'0 0.0
2019-Oct-19 08:29N 40°46' W 073°60'0 0.0
2019-Oct-19 07:59N 40°46' W 073°60'0 0.0
2019-Oct-19 07:29N 40°46' W 073°60'0 0.0
2019-Oct-19 06:59N 40°46' W 073°60'0 0.0
2019-Oct-19 06:29N 40°46' W 073°60'0 0.0
2019-Oct-19 05:59N 40°46' W 073°60'0 0.0
2019-Oct-19 05:29N 40°46' W 073°60'0 0.0
2019-Oct-19 04:59N 40°46' W 073°60'0 0.0
2019-Oct-19 04:29N 40°46' W 073°60'0 0.0
2019-Oct-19 03:59N 40°46' W 073°60'0 0.0
2019-Oct-19 03:08N 40°46' W 073°60'0 0.0
2019-Oct-19 02:56N 40°46' W 073°60'0 0.0
2019-Oct-19 02:26N 40°46' W 073°60'0 0.0
2019-Oct-19 01:59N 40°46' W 073°60'0 0.0
2019-Oct-19 01:29N 40°46' W 073°60'0 0.0
2019-Oct-19 00:50N 40°46' W 073°60'0 0.0
2019-Oct-19 00:29N 40°46' W 073°60'0 0.0
2019-Oct-18 23:59N 40°46' W 073°60'0 0.0
2019-Oct-18 23:26N 40°46' W 073°60'0 0.0
2019-Oct-18 22:59N 40°46' W 073°60'0 0.0
2019-Oct-18 22:29N 40°46' W 073°60'0 0.0
2019-Oct-18 21:59N 40°46' W 073°60'0 0.0
2019-Oct-18 21:29N 40°46' W 073°60'0 0.0
2019-Oct-18 20:59N 40°46' W 073°60'0 0.0
2019-Oct-18 20:29N 40°46' W 073°60'0 0.0
2019-Oct-18 19:59N 40°46' W 073°60'0 0.0
2019-Oct-18 19:29N 40°46' W 073°60'0 0.0
2019-Oct-18 18:59N 40°46' W 073°60'0 0.0
2019-Oct-18 18:29N 40°46' W 073°60'0 0.0
2019-Oct-18 17:59N 40°46' W 073°60'0 0.0
2019-Oct-18 17:29N 40°46' W 073°60'0 0.0
2019-Oct-18 16:53N 40°46' W 073°60'0 0.0
2019-Oct-18 16:29N 40°46' W 073°60'0 0.0
2019-Oct-18 15:59N 40°46' W 073°60'0 0.0
2019-Oct-18 15:29N 40°46' W 073°60'0 0.0
2019-Oct-18 14:59N 40°46' W 073°60'0 0.0
2019-Oct-18 14:29N 40°46' W 073°60'0 1.0
2019-Oct-18 14:00N 40°46' W 074°00'4 8.2
2019-Oct-18 13:31N 40°42' W 074°02'612.1
2019-Oct-18 13:00N 40°36' W 074°02'816.1
2019-Oct-18 12:30N 40°30' W 073°55'713.1
2019-Oct-18 11:59N 40°27' W 073°47'5 8.0
2019-Oct-18 11:25N 40°27' W 073°41'410.0
2019-Oct-18 10:59N 40°28' W 073°35'7710.4
2019-Oct-18 03:34N 40°47' W 071°57'64 9.0
2019-Oct-17 20:30N 41°29' W 070°54'611.1
2019-Oct-17 20:00N 41°32' W 070°48'5212.1
2019-Oct-17 15:45N 42°24' W 070°46'3711.2
2019-Oct-17 12:27N 41°49' W 070°27'37 6.5
2019-Oct-17 06:44N 42°24' W 070°46'0 1.8
2019-Oct-17 06:29N 42°24' W 070°46'1 2.0
2019-Oct-17 06:01N 42°25' W 070°47'2 3.2
2019-Oct-17 05:30N 42°25' W 070°49'1 2.4
2019-Oct-17 05:00N 42°24' W 070°48'713.0
2019-Oct-17 04:30N 42°29' W 070°41'1216.6
2019-Oct-17 03:47N 42°36' W 070°28'  
2019-Oct-14 20:57N 44°26' W 063°29'715.2
2019-Oct-14 20:30N 44°32' W 063°31'612.5
2019-Oct-14 20:00N 44°38' W 063°34'0 0.4
2019-Oct-14 19:30N 44°38' W 063°34'0 0.0
2019-Oct-14 19:00N 44°38' W 063°34'0 0.0
2019-Oct-14 18:30N 44°38' W 063°34'0 0.0
2019-Oct-14 18:00N 44°38' W 063°34'0 0.0
2019-Oct-14 17:30N 44°38' W 063°34'0 0.0
2019-Oct-14 17:00N 44°38' W 063°34'0 0.0
2019-Oct-14 16:30N 44°38' W 063°34'0 0.0
2019-Oct-14 16:00N 44°38' W 063°34'0 0.0
2019-Oct-14 15:30N 44°38' W 063°34'0 0.0
2019-Oct-14 15:00N 44°38' W 063°34'0 0.0
2019-Oct-14 14:30N 44°38' W 063°34'0 0.0
2019-Oct-14 14:00N 44°38' W 063°34'0 0.0
2019-Oct-14 13:30N 44°38' W 063°34'0 0.0
2019-Oct-14 13:00N 44°38' W 063°34'0 0.0
2019-Oct-14 12:30N 44°38' W 063°34'0 0.0
2019-Oct-14 12:00N 44°38' W 063°34'0 0.0
2019-Oct-14 11:30N 44°38' W 063°34'0 0.2
2019-Oct-14 11:00N 44°38' W 063°34'1 2.8
2019-Oct-14 10:30N 44°37' W 063°33'612.0
2019-Oct-14 10:00N 44°31' W 063°30'5 9.7
2019-Oct-14 09:30N 44°28' W 063°26'5 9.9
2019-Oct-14 08:57N 44°28' W 063°18'4 9.7
2019-Oct-14 08:30N 44°28' W 063°12'5 9.8
2019-Oct-14 08:00N 44°30' W 063°06'  
Track history (hours):
 
Tides and Currents Weather Stations Pressure Air Temp Water Temp Dewpoint Dewpoint Depression Visibility Wind Speed Wind Dir Waves Ship Positions

Silver Wind

Operator: V Ships Leisure

Last reported at 2019-Oct-21 00:00 UTC. Time now 2019-Oct-23 00:19 UTC.
Position N 42°21' W 070°56'.

Length 156 m; draft 5.7 m.

Type: Passenger vessel. MMSI: 308814000.

Date/timePositionNaut miles runAvg speedWind from/ knotsBaromVisibWave heightAir tempDewpointWater temp
2019-Oct-21 00:00N 42°21' W 070°56'4 7.9
2019-Oct-20 23:30N 42°21' W 071°01'0 0.0
2019-Oct-20 17:04N 42°21' W 071°02'0 2.5
2019-Oct-20 17:00N 42°21' W 071°01'6 8.4
2019-Oct-20 16:20N 42°23' W 070°54'40 9.1
2019-Oct-20 11:54N 41°45' W 070°36'410.0
2019-Oct-20 11:30N 41°42' W 070°40'714.3
2019-Oct-20 11:01N 41°35' W 070°43'816.3
2019-Oct-20 10:30N 41°30' W 070°52'816.0
2019-Oct-20 09:59N 41°26' W 071°01'916.1
2019-Oct-20 09:25N 41°24' W 071°13'614.6
2019-Oct-20 09:00N 41°23' W 071°21'11814.0
2019-Oct-20 00:35N 40°25' W 073°37'1315.5
2019-Oct-19 23:46N 40°29' W 073°53'416.7
2019-Oct-19 23:30N 40°30' W 073°58'713.9
2019-Oct-19 23:00N 40°36' W 074°03'713.6
2019-Oct-19 22:30N 40°43' W 074°01'3 6.0
2019-Oct-19 22:00N 40°46' W 073°60'0 0.0
2019-Oct-19 09:41N 40°46' W 073°60'0 0.0
2019-Oct-19 09:23N 40°46' W 073°60'0 0.0
2019-Oct-19 08:59N 40°46' W 073°60'0 0.0
2019-Oct-19 08:29N 40°46' W 073°60'0 0.0
2019-Oct-19 07:59N 40°46' W 073°60'0 0.0
2019-Oct-19 07:29N 40°46' W 073°60'0 0.0
2019-Oct-19 06:59N 40°46' W 073°60'0 0.0
2019-Oct-19 06:29N 40°46' W 073°60'0 0.0
2019-Oct-19 05:59N 40°46' W 073°60'0 0.0
2019-Oct-19 05:29N 40°46' W 073°60'0 0.0
2019-Oct-19 04:59N 40°46' W 073°60'0 0.0
2019-Oct-19 04:29N 40°46' W 073°60'0 0.0
2019-Oct-19 03:59N 40°46' W 073°60'0 0.0
2019-Oct-19 03:08N 40°46' W 073°60'0 0.0
2019-Oct-19 02:56N 40°46' W 073°60'0 0.0
2019-Oct-19 02:26N 40°46' W 073°60'0 0.0
2019-Oct-19 01:59N 40°46' W 073°60'0 0.0
2019-Oct-19 01:29N 40°46' W 073°60'0 0.0
2019-Oct-19 00:50N 40°46' W 073°60'0 0.0
2019-Oct-19 00:29N 40°46' W 073°60'0 0.0
2019-Oct-18 23:59N 40°46' W 073°60'0 0.0
2019-Oct-18 23:26N 40°46' W 073°60'0 0.0
2019-Oct-18 22:59N 40°46' W 073°60'0 0.0
2019-Oct-18 22:29N 40°46' W 073°60'0 0.0
2019-Oct-18 21:59N 40°46' W 073°60'0 0.0
2019-Oct-18 21:29N 40°46' W 073°60'0 0.0
2019-Oct-18 20:59N 40°46' W 073°60'0 0.0
2019-Oct-18 20:29N 40°46' W 073°60'0 0.0
2019-Oct-18 19:59N 40°46' W 073°60'0 0.0
2019-Oct-18 19:29N 40°46' W 073°60'0 0.0
2019-Oct-18 18:59N 40°46' W 073°60'0 0.0
2019-Oct-18 18:29N 40°46' W 073°60'0 0.0
2019-Oct-18 17:59N 40°46' W 073°60'0 0.0
2019-Oct-18 17:29N 40°46' W 073°60'0 0.0
2019-Oct-18 16:53N 40°46' W 073°60'0 0.0
2019-Oct-18 16:29N 40°46' W 073°60'0 0.0
2019-Oct-18 15:59N 40°46' W 073°60'0 0.0
2019-Oct-18 15:29N 40°46' W 073°60'0 0.0
2019-Oct-18 14:59N 40°46' W 073°60'0 0.0
2019-Oct-18 14:29N 40°46' W 073°60'0 1.0
2019-Oct-18 14:00N 40°46' W 074°00'4 8.2
2019-Oct-18 13:31N 40°42' W 074°02'612.1
2019-Oct-18 13:00N 40°36' W 074°02'816.1
2019-Oct-18 12:30N 40°30' W 073°55'713.1
2019-Oct-18 11:59N 40°27' W 073°47'5 8.0
2019-Oct-18 11:25N 40°27' W 073°41'410.0
2019-Oct-18 10:59N 40°28' W 073°35'7710.4
2019-Oct-18 03:34N 40°47' W 071°57'64 9.0
2019-Oct-17 20:30N 41°29' W 070°54'611.1
2019-Oct-17 20:00N 41°32' W 070°48'5212.1
2019-Oct-17 15:45N 42°24' W 070°46'3711.2
2019-Oct-17 12:27N 41°49' W 070°27'37 6.5
2019-Oct-17 06:44N 42°24' W 070°46'0 1.8
2019-Oct-17 06:29N 42°24' W 070°46'1 2.0
2019-Oct-17 06:01N 42°25' W 070°47'2 3.2
2019-Oct-17 05:30N 42°25' W 070°49'1 2.4
2019-Oct-17 05:00N 42°24' W 070°48'713.0
2019-Oct-17 04:30N 42°29' W 070°41'1216.6
2019-Oct-17 03:47N 42°36' W 070°28'  
2019-Oct-14 20:57N 44°26' W 063°29'715.2
2019-Oct-14 20:30N 44°32' W 063°31'612.5
2019-Oct-14 20:00N 44°38' W 063°34'0 0.4
2019-Oct-14 19:30N 44°38' W 063°34'0 0.0
2019-Oct-14 19:00N 44°38' W 063°34'0 0.0
2019-Oct-14 18:30N 44°38' W 063°34'0 0.0
2019-Oct-14 18:00N 44°38' W 063°34'0 0.0
2019-Oct-14 17:30N 44°38' W 063°34'0 0.0
2019-Oct-14 17:00N 44°38' W 063°34'0 0.0
2019-Oct-14 16:30N 44°38' W 063°34'0 0.0
2019-Oct-14 16:00N 44°38' W 063°34'0 0.0
2019-Oct-14 15:30N 44°38' W 063°34'0 0.0
2019-Oct-14 15:00N 44°38' W 063°34'0 0.0
2019-Oct-14 14:30N 44°38' W 063°34'0 0.0
2019-Oct-14 14:00N 44°38' W 063°34'0 0.0
2019-Oct-14 13:30N 44°38' W 063°34'0 0.0
2019-Oct-14 13:00N 44°38' W 063°34'0 0.0
2019-Oct-14 12:30N 44°38' W 063°34'0 0.0
2019-Oct-14 12:00N 44°38' W 063°34'0 0.0
2019-Oct-14 11:30N 44°38' W 063°34'0 0.2
2019-Oct-14 11:00N 44°38' W 063°34'1 2.8
2019-Oct-14 10:30N 44°37' W 063°33'612.0
2019-Oct-14 10:00N 44°31' W 063°30'5 9.7
2019-Oct-14 09:30N 44°28' W 063°26'5 9.9
2019-Oct-14 08:57N 44°28' W 063°18'4 9.7
2019-Oct-14 08:30N 44°28' W 063°12'5 9.8
2019-Oct-14 08:00N 44°30' W 063°06'  

Dump ship's entire track history